Time;durP1;ratioP1;P1;durP2;ratioP2;P2;SDS_P1;SDS_P2;PMS_P1;PMS_P2;Temp;Humidity;BMP_temperature;BMP_pressure;BME280_temperature;BME280_humidity;BME280_pressure;Samples;Min_cycle;Max_cycle;Signal;HPM_P1;HPM_P2
2021/03/02 00:01:18;;;;;;;20.75;12.15;;;26.50;2201.60;;;;;;5090415;28;20098;-66
2021/03/02 00:03:44;;;;;;;22.95;12.15;;;26.40;2201.60;;;;;;5083439;28;20120;-67
2021/03/02 00:06:11;;;;;;;20.23;11.70;;;26.40;2201.60;;;;;;5089390;28;20318;-66
2021/03/02 00:08:37;;;;;;;22.35;12.77;;;26.40;2201.60;;;;;;5087641;28;20077;-66
2021/03/02 00:11:04;;;;;;;21.58;13.02;;;26.40;2201.60;;;;;;5084089;28;20111;-66
2021/03/02 00:13:31;;;;;;;21.85;12.68;;;26.40;2201.60;;;;;;5086847;28;20024;-65
2021/03/02 00:15:59;;;;;;;19.60;12.43;;;26.40;2201.60;;;;;;5087086;28;20112;-65
2021/03/02 00:18:28;;;;;;;20.80;12.40;;;26.30;2201.60;;;;;;5078462;28;20366;-66
2021/03/02 00:21:11;;;;;;;22.05;12.80;;;26.30;2201.60;;;;;;5078291;28;20394;-66
2021/03/02 00:23:42;;;;;;;24.10;13.73;;;26.30;2201.60;;;;;;5078418;28;20024;-67
2021/03/02 00:26:12;;;;;;;17.42;11.05;;;26.30;2201.60;;;;;;5078575;28;20025;-66
2021/03/02 00:28:39;;;;;;;18.88;11.82;;;26.30;2201.60;;;;;;5078787;28;20024;-66
2021/03/02 00:31:06;;;;;;;22.55;12.75;;;26.30;2201.60;;;;;;5077797;28;20021;-65
2021/03/02 00:33:34;;;;;;;22.35;12.70;;;26.30;2201.60;;;;;;5077627;28;20426;-65
2021/03/02 00:35:59;;;;;;;26.02;14.63;;;26.30;2201.60;;;;;;5077674;28;20341;-66
2021/03/02 00:38:25;;;;;;;23.65;12.43;;;26.20;2201.60;;;;;;5078331;28;20031;-65
2021/03/02 00:40:51;;;;;;;21.17;11.82;;;26.20;2201.60;;;;;;5078276;28;20029;-65
2021/03/02 00:43:17;;;;;;;23.60;12.30;;;26.20;2201.60;;;;;;5078247;28;20048;-65
2021/03/02 00:45:43;;;;;;;18.13;11.70;;;26.20;2201.60;;;;;;5078366;28;20105;-67
2021/03/02 00:48:10;;;;;;;20.15;11.80;;;26.20;2201.60;;;;;;5077735;28;20094;-66
2021/03/02 00:50:35;;;;;;;25.60;12.77;;;26.20;2201.60;;;;;;5077847;28;20036;-65
2021/03/02 00:53:01;;;;;;;19.95;11.88;;;26.20;2201.60;;;;;;5078084;28;20025;-66
2021/03/02 00:55:27;;;;;;;22.27;12.55;;;26.10;2201.60;;;;;;5078108;28;20028;-66
2021/03/02 00:57:53;;;;;;;19.33;11.32;;;26.10;2201.60;;;;;;5077444;28;20021;-67
2021/03/02 01:00:19;;;;;;;23.05;12.57;;;26.00;2201.60;;;;;;5077176;28;20028;-66
2021/03/02 01:02:45;;;;;;;18.55;11.93;;;26.00;2201.60;;;;;;5078000;28;20048;-65
2021/03/02 01:05:11;;;;;;;19.45;11.52;;;26.00;2201.60;;;;;;5077047;28;20064;-66
2021/03/02 01:07:37;;;;;;;20.27;12.32;;;26.00;2201.60;;;;;;5075860;28;20416;-65
2021/03/02 01:10:08;;;;;;;19.58;11.50;;;26.00;2201.60;;;;;;5076547;28;20033;-68
2021/03/02 01:12:34;;;;;;;20.38;11.40;;;26.00;2201.60;;;;;;5075978;28;20024;-67
2021/03/02 01:15:00;;;;;;;19.73;11.40;;;26.00;2201.60;;;;;;5076160;28;20437;-66
2021/03/02 01:17:27;;;;;;;21.33;12.75;;;26.00;2201.60;;;;;;5076518;28;20429;-65
2021/03/02 01:19:53;;;;;;;16.42;10.52;;;26.00;2201.60;;;;;;5076620;28;20063;-67
2021/03/02 01:22:19;;;;;;;22.25;11.90;;;25.90;2201.60;;;;;;5079427;28;20053;-66
2021/03/02 01:24:49;;;;;;;20.25;11.52;;;25.90;2201.60;;;;;;5086357;28;20020;-69
2021/03/02 01:27:15;;;;;;;19.25;12.27;;;25.90;2201.60;;;;;;5085714;28;20334;-67
2021/03/02 01:29:41;;;;;;;20.05;12.15;;;25.80;2201.60;;;;;;5086766;28;20032;-66
2021/03/02 01:32:07;;;;;;;18.67;11.27;;;25.80;2201.60;;;;;;5087711;28;20052;-68
2021/03/02 01:34:34;;;;;;;22.77;12.35;;;25.70;2201.60;;;;;;5085130;28;20111;-66
2021/03/02 01:37:00;;;;;;;19.17;11.65;;;25.70;2201.60;;;;;;5086783;28;20099;-65
2021/03/02 01:39:26;;;;;;;20.10;11.50;;;25.70;2201.60;;;;;;5088145;28;20031;-66
2021/03/02 01:41:59;;;;;;;19.05;11.23;;;25.70;2201.60;;;;;;5085333;28;20138;-65
2021/03/02 01:44:27;;;;;;;16.80;10.50;;;25.70;2201.60;;;;;;5095067;28;20031;-65
2021/03/02 01:46:53;;;;;;;20.73;12.07;;;25.60;2201.60;;;;;;5097570;28;20028;-65
2021/03/02 01:49:19;;;;;;;16.90;10.77;;;25.60;2201.60;;;;;;5096841;28;20054;-65
2021/03/02 01:51:46;;;;;;;21.38;11.88;;;25.60;2201.60;;;;;;5096603;28;20031;-67
2021/03/02 01:54:13;;;;;;;15.27;10.48;;;25.60;2201.60;;;;;;5097377;28;20020;-67
2021/03/02 01:56:40;;;;;;;16.25;10.88;;;25.60;2201.60;;;;;;5097401;28;20020;-66
2021/03/02 01:59:06;;;;;;;20.92;11.43;;;25.60;2201.60;;;;;;5097746;28;20032;-66
2021/03/02 02:01:33;;;;;;;17.50;11.13;;;0.90;2201.60;;;;;;5097204;28;20115;-68
2021/03/02 02:04:25;;;;;;;19.33;11.48;;;0.90;2201.60;;;;;;5097080;28;20031;-66
2021/03/02 02:07:06;;;;;;;18.73;11.68;;;0.90;2201.60;;;;;;5097603;28;20026;-67
2021/03/02 02:09:32;;;;;;;19.25;11.10;;;0.90;2201.60;;;;;;5097091;28;20024;-67
2021/03/02 02:12:22;;;;;;;18.80;11.93;;;0.90;2201.60;;;;;;5096940;28;20342;-66
2021/03/02 02:15:08;;;;;;;18.70;11.00;;;25.60;2201.60;;;;;;5097435;28;20024;-67
2021/03/02 02:17:57;;;;;;;18.88;11.45;;;0.90;2201.60;;;;;;5097504;28;20039;-67
2021/03/02 02:20:34;;;;;;;20.65;11.05;;;0.90;2201.60;;;;;;5097606;28;20063;-66
2021/03/02 02:23:09;;;;;;;19.27;11.95;;;0.90;2201.60;;;;;;5096634;28;20032;-66
2021/03/02 02:26:02;;;;;;;19.70;11.30;;;0.90;2201.60;;;;;;5096723;28;20019;-66
2021/03/02 02:28:29;;;;;;;20.17;11.30;;;0.90;2201.60;;;;;;5097427;28;20024;-66
2021/03/02 02:30:57;;;;;;;18.67;11.15;;;0.90;2201.60;;;;;;5096651;28;20315;-66
2021/03/02 02:33:26;;;;;;;22.33;11.38;;;0.90;2201.60;;;;;;5096251;28;20020;-67
2021/03/02 02:35:53;;;;;;;20.85;11.02;;;0.80;2201.60;;;;;;5096031;28;20333;-66
2021/03/02 02:38:21;;;;;;;21.70;12.18;;;0.80;2201.60;;;;;;5096599;28;20103;-68
2021/03/02 02:40:49;;;;;;;19.15;11.20;;;0.80;2201.60;;;;;;5097101;28;20120;-67
2021/03/02 02:43:20;;;;;;;18.83;11.40;;;0.80;2201.60;;;;;;5096674;28;20109;-67
2021/03/02 02:45:48;;;;;;;21.90;10.45;;;0.80;2201.60;;;;;;5097138;28;20031;-66
2021/03/02 02:48:16;;;;;;;17.58;10.93;;;0.80;2201.60;;;;;;5096718;28;20331;-68
2021/03/02 02:50:44;;;;;;;21.88;11.43;;;0.80;2201.60;;;;;;5096445;28;20059;-67
2021/03/02 02:53:10;;;;;;;21.98;11.77;;;0.80;2201.60;;;;;;5097129;28;20028;-65
2021/03/02 02:55:44;;;;;;;18.17;10.73;;;0.80;2201.60;;;;;;5096949;28;20051;-66
2021/03/02 02:58:12;;;;;;;19.38;11.25;;;0.80;2201.60;;;;;;5095909;28;20090;-67
2021/03/02 03:00:40;;;;;;;16.45;11.07;;;0.80;2201.60;;;;;;5097147;28;20024;-66
2021/03/02 03:03:10;;;;;;;21.83;11.80;;;0.80;2201.60;;;;;;5098339;28;20028;-67
2021/03/02 03:05:39;;;;;;;19.67;11.93;;;0.90;2201.60;;;;;;5100382;28;20020;-67
2021/03/02 03:08:12;;;;;;;;;;;0.90;2201.60;;;;;;5101239;28;20020;-68
2021/03/02 03:10:39;;;;;;;22.45;11.68;;;0.90;2201.60;;;;;;5100279;28;19911;-66
2021/03/02 03:13:08;;;;;;;22.48;12.68;;;0.90;2201.60;;;;;;5100168;28;20028;-67
2021/03/02 03:15:35;;;;;;;19.55;11.38;;;0.80;2201.60;;;;;;5100762;28;20027;-66
2021/03/02 03:18:07;;;;;;;18.23;11.93;;;0.80;2201.60;;;;;;5100225;28;20391;-66
2021/03/02 03:20:33;;;;;;;19.85;10.75;;;0.80;2201.60;;;;;;5100387;28;20024;-66
2021/03/02 03:23:00;;;;;;;20.67;11.77;;;0.70;2201.60;;;;;;5099893;28;20034;-66
2021/03/02 03:25:26;;;;;;;20.08;12.38;;;0.60;2201.60;;;;;;5099697;28;20031;-66
2021/03/02 03:27:58;;;;;;;20.25;12.05;;;0.70;2201.60;;;;;;5100421;28;20103;-67
2021/03/02 03:30:26;;;;;;;24.67;12.88;;;0.70;2201.60;;;;;;5099926;28;20383;-65
2021/03/02 03:32:58;;;;;;;20.48;12.15;;;0.70;2201.60;;;;;;5099303;28;20321;-66
2021/03/02 03:35:25;;;;;;;21.15;11.60;;;0.70;2201.60;;;;;;5099143;28;20054;-66
2021/03/02 03:37:51;;;;;;;18.52;11.20;;;0.70;2201.60;;;;;;5099499;28;20020;-66
2021/03/02 03:40:17;;;;;;;21.00;11.77;;;0.70;2201.60;;;;;;5099209;28;20425;-67
2021/03/02 03:42:43;;;;;;;21.70;12.43;;;0.70;2201.60;;;;;;5099740;28;20023;-66
2021/03/02 03:45:10;;;;;;;20.45;13.00;;;0.80;2201.60;;;;;;5100190;28;20024;-66
2021/03/02 03:47:36;;;;;;;22.98;13.10;;;0.70;2201.60;;;;;;5099772;28;20024;-66
2021/03/02 03:50:04;;;;;;;28.23;13.00;;;0.60;2201.60;;;;;;5099247;28;20070;-67
2021/03/02 03:52:31;;;;;;;23.85;13.85;;;0.60;2201.60;;;;;;5099533;28;20024;-68
2021/03/02 03:54:59;;;;;;;25.48;13.20;;;0.50;2201.60;;;;;;5099678;28;20120;-68
2021/03/02 03:57:26;;;;;;;22.17;12.93;;;0.40;2201.60;;;;;;5099533;28;20085;-67
2021/03/02 03:59:53;;;;;;;25.67;15.07;;;0.40;2201.60;;;;;;5098534;28;20034;-66
2021/03/02 04:02:20;;;;;;;28.45;16.00;;;0.40;2201.60;;;;;;5098337;28;20221;-66
2021/03/02 04:04:46;;;;;;;28.02;16.27;;;0.30;2201.60;;;;;;5098548;28;20066;-66
2021/03/02 04:07:14;;;;;;;35.58;17.75;;;0.20;2201.60;;;;;;5098707;28;20046;-67
2021/03/02 04:09:40;;;;;;;29.30;16.20;;;0.00;2201.60;;;;;;5099374;28;20097;-67
2021/03/02 04:12:09;;;;;;;37.63;17.73;;;0.00;2201.60;;;;;;5099104;28;20016;-66
2021/03/02 04:14:35;;;;;;;36.45;20.42;;;12.90;2201.60;;;;;;5098661;28;20058;-66
2021/03/02 04:17:02;;;;;;;35.42;17.95;;;13.00;2201.60;;;;;;5099495;28;20054;-68
2021/03/02 04:19:28;;;;;;;25.08;13.90;;;13.10;2201.60;;;;;;5099466;28;20035;-67
2021/03/02 04:21:53;;;;;;;25.95;14.15;;;13.00;2201.60;;;;;;5095415;28;20020;-66
2021/03/02 04:24:19;;;;;;;27.15;14.85;;;12.90;2201.60;;;;;;5083693;28;20081;-66
2021/03/02 04:26:45;;;;;;;27.55;14.93;;;0.00;2201.60;;;;;;5078709;28;20056;-68
2021/03/02 04:29:11;;;;;;;24.67;13.82;;;0.20;2201.60;;;;;;5078390;28;20085;-66
2021/03/02 04:31:36;;;;;;;24.13;14.38;;;0.30;2201.60;;;;;;5078800;28;20024;-69
2021/03/02 04:34:02;;;;;;;29.50;16.23;;;0.30;2201.60;;;;;;5078492;28;20024;-66
2021/03/02 04:36:28;;;;;;;24.95;14.00;;;0.30;2201.60;;;;;;5077620;28;20024;-66
2021/03/02 04:38:54;;;;;;;28.00;14.43;;;0.20;2201.60;;;;;;5078839;28;20051;-66
2021/03/02 04:41:20;;;;;;;25.65;14.30;;;0.20;2201.60;;;;;;5078554;28;20028;-66
2021/03/02 04:43:46;;;;;;;23.52;14.25;;;0.20;2201.60;;;;;;5081063;28;20030;-66
2021/03/02 04:46:11;;;;;;;25.75;14.05;;;0.20;2201.60;;;;;;5087703;28;20056;-66
2021/03/02 04:48:37;;;;;;;26.73;13.25;;;0.20;2201.60;;;;;;5092125;28;20459;-68
2021/03/02 04:51:04;;;;;;;22.10;13.02;;;0.20;2201.60;;;;;;5098026;28;20040;-66
2021/03/02 04:53:30;;;;;;;23.50;13.02;;;0.30;2201.60;;;;;;5092282;28;20063;-67
2021/03/02 04:55:56;;;;;;;24.38;13.57;;;0.30;2201.60;;;;;;5086799;28;20027;-66
2021/03/02 04:58:22;;;;;;;23.17;13.07;;;0.30;2201.60;;;;;;5087723;28;20024;-68
2021/03/02 05:00:47;;;;;;;23.40;13.35;;;0.30;2201.60;;;;;;5088967;28;20341;-66
2021/03/02 05:03:13;;;;;;;22.88;13.45;;;0.30;2201.60;;;;;;5093359;28;20341;-66
2021/03/02 05:05:39;;;;;;;21.08;12.00;;;0.30;2201.60;;;;;;5097881;28;20035;-69
2021/03/02 05:08:05;;;;;;;24.17;12.93;;;0.40;2201.60;;;;;;5098330;28;20016;-67
2021/03/02 05:10:31;;;;;;;21.17;12.80;;;0.50;2201.60;;;;;;5088630;28;20028;-68
2021/03/02 05:12:56;;;;;;;24.25;13.70;;;0.50;2201.60;;;;;;5087890;28;20020;-68
2021/03/02 05:15:22;;;;;;;26.45;13.60;;;0.50;2201.60;;;;;;5086316;28;20115;-66
2021/03/02 05:17:48;;;;;;;31.73;16.15;;;0.50;2201.60;;;;;;5092020;28;20056;-67
2021/03/02 05:20:14;;;;;;;29.45;16.65;;;0.50;2201.60;;;;;;5091695;28;20024;-68
2021/03/02 05:22:40;;;;;;;28.23;14.90;;;0.50;2201.60;;;;;;5077652;28;20425;-67
2021/03/02 05:25:06;;;;;;;25.13;14.70;;;0.60;2201.60;;;;;;5077647;28;20031;-67
2021/03/02 05:27:32;;;;;;;25.60;14.15;;;0.60;2201.60;;;;;;5076606;28;20020;-67
2021/03/02 05:29:58;;;;;;;23.05;13.82;;;0.80;2201.60;;;;;;5077829;28;20098;-68
2021/03/02 05:32:24;;;;;;;22.35;13.63;;;0.80;2201.60;;;;;;5077417;28;20050;-67
2021/03/02 05:34:49;;;;;;;22.92;13.55;;;0.90;2201.60;;;;;;5077125;28;20028;-66
2021/03/02 05:37:15;;;;;;;22.45;13.38;;;0.90;2201.60;;;;;;5076952;28;20032;-67
2021/03/02 05:39:41;;;;;;;29.33;13.50;;;25.60;2201.60;;;;;;5077242;28;20111;-66
2021/03/02 05:42:08;;;;;;;33.33;14.25;;;25.60;2201.60;;;;;;5077923;28;20103;-67
2021/03/02 05:44:34;;;;;;;25.00;14.15;;;25.60;2201.60;;;;;;5097266;28;20032;-66
2021/03/02 05:47:02;;;;;;;30.67;16.00;;;25.60;2201.60;;;;;;5096622;28;20016;-66
2021/03/02 05:49:28;;;;;;;27.80;16.98;;;25.70;2201.60;;;;;;5097489;28;20059;-67
2021/03/02 05:51:54;;;;;;;28.83;17.50;;;25.70;2201.60;;;;;;5097900;28;20051;-67
2021/03/02 05:54:20;;;;;;;35.33;20.10;;;25.60;2201.60;;;;;;5087533;28;20032;-67
2021/03/02 05:56:46;;;;;;;31.33;17.02;;;25.70;2201.60;;;;;;5097774;28;20402;-67
2021/03/02 05:59:12;;;;;;;31.60;17.23;;;25.70;2201.60;;;;;;5097222;28;20027;-67
2021/03/02 06:01:37;;;;;;;33.75;18.58;;;25.80;2201.60;;;;;;5091858;28;20024;-67
2021/03/02 06:04:04;;;;;;;34.63;18.73;;;25.80;2201.60;;;;;;5095318;28;20063;-69
2021/03/02 06:06:30;;;;;;;37.00;18.92;;;25.70;2201.60;;;;;;5096053;28;20034;-68
2021/03/02 06:08:56;;;;;;;42.58;23.52;;;25.80;2201.60;;;;;;5096779;28;20103;-65
2021/03/02 06:11:32;;;;;;;57.85;32.92;;;25.70;2201.60;;;;;;5097314;28;20372;-67
2021/03/02 06:14:19;;;;;;;53.67;27.50;;;25.80;2201.60;;;;;;5096307;28;20024;-67
2021/03/02 06:16:50;;;;;;;45.45;22.75;;;25.80;2201.60;;;;;;5096299;28;20116;-67
2021/03/02 06:19:17;;;;;;;49.72;27.90;;;26.00;2201.60;;;;;;5095934;28;20034;-66
2021/03/02 06:21:44;;;;;;;47.35;25.58;;;26.10;2201.60;;;;;;5096513;28;20409;-65
2021/03/02 06:24:11;;;;;;;37.67;20.38;;;26.20;2201.60;;;;;;5096419;28;20421;-66
2021/03/02 06:26:38;;;;;;;45.67;22.77;;;26.40;2201.60;;;;;;5096532;28;20452;-67
2021/03/02 06:29:14;;;;;;;41.70;21.80;;;51.20;2227.20;;;;;;5096659;28;20071;-68
2021/03/02 06:31:45;;;;;;;35.55;18.27;;;51.40;2227.20;;;;;;5097055;28;20062;-66
2021/03/02 06:34:16;;;;;;;46.70;24.50;;;51.60;2227.20;;;;;;5096631;28;20111;-66
2021/03/02 06:36:57;;;;;;;32.30;19.17;;;51.80;2227.20;;;;;;5096710;28;20520;-67
2021/03/02 06:39:30;;;;;;;30.83;19.92;;;51.90;2227.20;;;;;;5100428;28;20024;-67
2021/03/02 06:42:18;;;;;;;43.72;23.90;;;52.00;2227.20;;;;;;5100743;28;20028;-67
2021/03/02 06:44:52;;;;;;;42.45;24.08;;;52.10;2227.20;;;;;;5100182;28;20031;-66
2021/03/02 06:47:36;;;;;;;37.35;21.52;;;52.10;2227.20;;;;;;5099399;28;20024;-66
2021/03/02 06:50:20;;;;;;;56.92;34.83;;;52.10;2227.20;;;;;;5099479;28;20076;-66
2021/03/02 06:52:45;;;;;;;45.80;25.30;;;76.80;2227.20;;;;;;5100747;28;20111;-66
2021/03/02 06:55:17;;;;;;;48.15;25.23;;;77.00;2227.20;;;;;;5100618;28;20175;-67
2021/03/02 06:57:44;;;;;;;34.45;22.55;;;77.10;2227.20;;;;;;5101080;28;20024;-67
2021/03/02 07:00:10;;;;;;;37.50;23.58;;;77.10;2227.20;;;;;;5100611;28;20035;-67
2021/03/02 07:02:46;;;;;;;33.22;21.23;;;77.20;2227.20;;;;;;5100353;28;20110;-66
2021/03/02 07:05:18;;;;;;;40.00;23.40;;;77.30;2227.20;;;;;;5100270;28;20028;-66
2021/03/02 07:07:45;;;;;;;41.17;25.58;;;77.50;2227.20;;;;;;5100960;28;20401;-66
2021/03/02 07:10:14;;;;;;;42.55;28.17;;;77.50;2227.20;;;;;;5100041;28;20028;-66
2021/03/02 07:12:41;;;;;;;44.65;25.88;;;77.40;2227.20;;;;;;5100586;28;20077;-68
2021/03/02 07:15:09;;;;;;;43.83;26.55;;;77.50;2227.20;;;;;;5100843;28;20024;-68
2021/03/02 07:17:41;;;;;;;53.53;25.73;;;77.60;2227.20;;;;;;5099950;28;20341;-67
2021/03/02 07:20:12;;;;;;;46.55;27.27;;;77.60;2227.20;;;;;;5100433;28;20027;-67
2021/03/02 07:22:40;;;;;;;45.53;25.95;;;77.60;2227.20;;;;;;5100524;28;20051;-69
2021/03/02 07:25:10;;;;;;;46.97;25.98;;;77.70;2227.20;;;;;;5100064;28;20028;-67
2021/03/02 07:27:43;;;;;;;48.53;25.45;;;102.40;2227.20;;;;;;5100600;28;20078;-66
2021/03/02 07:30:13;;;;;;;40.63;25.05;;;102.50;2227.20;;;;;;5100178;28;20032;-66
2021/03/02 07:32:40;;;;;;;47.03;25.60;;;102.70;2227.20;;;;;;5099396;28;20311;-66
2021/03/02 07:35:14;;;;;;;45.55;24.10;;;102.80;2227.20;;;;;;5099416;28;20024;-66
2021/03/02 07:37:40;;;;;;;49.28;23.63;;;102.70;2227.20;;;;;;5099502;28;20028;-66
2021/03/02 07:40:07;;;;;;;55.35;23.80;;;102.80;2227.20;;;;;;5100048;28;20111;-67
2021/03/02 07:42:33;;;;;;;43.28;22.38;;;102.90;2227.20;;;;;;5099742;28;20024;-68
2021/03/02 07:45:14;;;;;;;38.38;22.70;;;103.00;2227.20;;;;;;5099636;28;20032;-68
2021/03/02 07:47:48;;;;;;;56.00;24.92;;;103.20;2227.20;;;;;;5092116;28;20089;-67
2021/03/02 07:50:20;;;;;;;52.35;22.63;;;103.30;2227.20;;;;;;5079025;28;20051;-66
2021/03/02 07:52:46;;;;;;;48.47;23.27;;;103.30;2227.20;;;;;;5079343;28;20078;-69
2021/03/02 07:55:22;;;;;;;44.63;23.42;;;103.30;2227.20;;;;;;5078869;28;20082;-68
2021/03/02 07:57:49;;;;;;;53.33;23.75;;;128.10;2252.80;;;;;;5079456;28;20031;-68
2021/03/02 08:00:15;;;;;;;53.28;25.08;;;128.20;2252.80;;;;;;5083962;28;20059;-70
2021/03/02 08:02:40;;;;;;;51.05;26.70;;;128.30;2252.80;;;;;;5088694;28;20386;-67
2021/03/02 08:05:29;;;;;;;64.28;28.98;;;128.40;2252.80;;;;;;5086272;28;20479;-65
2021/03/02 08:08:22;;;;;;;62.90;27.40;;;128.50;2252.80;;;;;;5087787;28;20110;-65
2021/03/02 08:10:48;;;;;;;55.95;27.73;;;128.60;2252.80;;;;;;5088784;28;20028;-67
2021/03/02 08:13:33;;;;;;;43.63;24.65;;;128.70;2252.80;;;;;;5087078;28;20436;-66
2021/03/02 08:16:00;;;;;;;37.92;22.00;;;128.90;2252.80;;;;;;5085924;28;20401;-67
2021/03/02 08:18:34;;;;;;;33.15;22.40;;;153.60;2252.80;;;;;;5087664;28;20083;-66
2021/03/02 08:21:04;;;;;;;36.78;22.35;;;153.80;2252.80;;;;;;5086858;28;20341;-67
2021/03/02 08:23:50;;;;;;;34.95;20.52;;;154.10;2252.80;;;;;;5087119;28;20184;-66
2021/03/02 08:26:32;;;;;;;34.40;19.73;;;154.20;2252.80;;;;;;5087748;28;20408;-68
2021/03/02 08:29:03;;;;;;;33.17;19.20;;;154.30;2252.80;;;;;;5083757;28;20418;-66
2021/03/02 08:31:29;;;;;;;37.53;19.85;;;154.30;2252.80;;;;;;5078808;28;20031;-67
2021/03/02 08:33:57;;;;;;;36.42;20.05;;;154.30;2252.80;;;;;;5078300;28;20020;-67
2021/03/02 08:36:24;;;;;;;32.55;19.40;;;154.20;2252.80;;;;;;5078022;28;20020;-66
2021/03/02 08:38:50;;;;;;;33.13;21.05;;;154.20;2252.80;;;;;;5078432;28;20074;-66
2021/03/02 08:41:33;;;;;;;37.47;19.92;;;154.20;2252.80;;;;;;5078340;28;20020;-65
2021/03/02 08:44:00;;;;;;;34.72;20.45;;;154.20;2252.80;;;;;;5078528;28;20031;-66
2021/03/02 08:46:33;;;;;;;37.20;20.33;;;154.40;2252.80;;;;;;5078500;28;20027;-68
2021/03/02 08:49:17;;;;;;;33.58;19.73;;;154.30;2252.80;;;;;;5077812;28;20143;-67
2021/03/02 08:51:43;;;;;;;35.50;19.00;;;154.30;2252.80;;;;;;5077489;28;20033;-66
2021/03/02 08:54:08;;;;;;;34.45;21.95;;;154.30;2252.80;;;;;;5078111;28;20311;-66
2021/03/02 08:56:34;;;;;;;39.55;23.20;;;154.40;2252.80;;;;;;5078304;28;20068;-66
2021/03/02 08:59:12;;;;;;;54.00;22.73;;;154.40;2252.80;;;;;;5077657;28;20418;-65
2021/03/02 09:01:42;;;;;;;36.03;23.33;;;154.50;2252.80;;;;;;5078101;28;20394;-66
2021/03/02 09:04:17;;;;;;;33.80;20.58;;;179.20;2252.80;;;;;;5077714;28;20024;-66
2021/03/02 09:06:47;;;;;;;36.63;22.67;;;179.20;2252.80;;;;;;5076880;28;20421;-66
2021/03/02 09:09:16;;;;;;;37.28;22.10;;;179.20;2252.80;;;;;;5077905;28;20032;-68
2021/03/02 09:11:50;;;;;;;33.70;21.42;;;179.20;2252.80;;;;;;5077741;28;20115;-66
2021/03/02 09:14:23;;;;;;;34.97;21.05;;;179.20;2252.80;;;;;;5078221;28;20028;-65
2021/03/02 09:16:55;;;;;;;38.72;24.00;;;179.20;2252.80;;;;;;5091807;28;20036;-67
2021/03/02 09:19:23;;;;;;;40.15;23.48;;;179.30;2252.80;;;;;;5097711;28;20155;-65
2021/03/02 09:21:59;;;;;;;37.40;22.63;;;179.40;2252.80;;;;;;5088324;28;20025;-67
2021/03/02 09:24:30;;;;;;;39.95;24.23;;;179.50;2252.80;;;;;;5087319;28;20028;-67
2021/03/02 09:27:04;;;;;;;39.25;23.13;;;179.50;2252.80;;;;;;5085704;28;20027;-67
2021/03/02 09:29:39;;;;;;;40.90;24.65;;;179.60;2252.80;;;;;;5084500;28;20476;-67
2021/03/02 09:32:06;;;;;;;38.40;24.55;;;179.60;2252.80;;;;;;5085436;28;20615;-67
2021/03/02 09:34:33;;;;;;;41.63;25.13;;;179.80;2252.80;;;;;;5084763;28;20437;-67
2021/03/02 09:37:15;;;;;;;39.35;23.65;;;180.00;2252.80;;;;;;5085872;28;20023;-67
2021/03/02 09:40:03;;;;;;;37.47;23.55;;;180.00;2252.80;;;;;;5086283;28;20028;-66
2021/03/02 09:42:30;;;;;;;40.80;23.67;;;180.00;2252.80;;;;;;5087555;28;20107;-67
2021/03/02 09:45:02;;;;;;;37.95;23.63;;;204.80;2252.80;;;;;;5085802;28;20027;-66
2021/03/02 09:47:33;;;;;;;39.70;23.00;;;204.90;2252.80;;;;;;5085280;28;20020;-66
2021/03/02 09:50:01;;;;;;;40.60;23.75;;;204.90;2252.80;;;;;;5083620;28;20410;-67
2021/03/02 09:52:28;;;;;;;36.15;21.55;;;205.00;2252.80;;;;;;5077258;28;20032;-68
2021/03/02 09:55:18;;;;;;;42.00;22.30;;;205.10;2252.80;;;;;;5077421;28;20032;-68
2021/03/02 09:58:07;;;;;;;31.80;20.65;;;205.10;2252.80;;;;;;5077381;28;20020;-68
2021/03/02 10:00:34;;;;;;;;;;;205.10;2252.80;;;;;;5077967;28;20029;-67
2021/03/02 10:03:04;;;;;;;35.78;21.10;;;205.20;2227.20;;;;;;5076749;28;19947;-68
2021/03/02 10:05:38;;;;;;;35.80;21.48;;;205.30;2252.80;;;;;;5094387;28;20103;-68
2021/03/02 10:08:22;;;;;;;31.90;20.33;;;205.40;2176.00;;;;;;5097038;28;20028;-68
2021/03/02 10:10:50;;;;;;;34.20;20.27;;;205.60;2124.80;;;;;;5096746;28;20126;-68
2021/03/02 10:13:26;;;;;;;32.30;20.55;;;205.60;2176.00;;;;;;5096434;28;20403;-67
2021/03/02 10:16:23;;;;;;;33.13;20.40;;;205.70;2124.80;;;;;;5097185;28;20019;-66
2021/03/02 10:18:58;;;;;;;34.45;21.35;;;205.70;2176.00;;;;;;5087194;28;20025;-68
2021/03/02 10:21:36;;;;;;;35.53;22.65;;;205.70;2099.20;;;;;;5076726;28;20020;-68
2021/03/02 10:24:03;;;;;;;33.67;19.98;;;230.50;2124.80;;;;;;5077190;28;20035;-68
2021/03/02 10:26:34;;;;;;;35.67;20.73;;;230.50;2099.20;;;;;;5081536;28;20069;-68
2021/03/02 10:29:01;;;;;;;30.73;20.20;;;230.60;2048.00;;;;;;5097297;28;20089;-67
2021/03/02 10:31:27;;;;;;;28.90;19.58;;;230.60;2099.20;;;;;;5097322;28;20050;-67
2021/03/02 10:33:53;;;;;;;34.50;20.35;;;230.70;2099.20;;;;;;5096127;28;20441;-67
2021/03/02 10:36:23;;;;;;;30.52;19.55;;;230.80;2073.60;;;;;;5096061;28;20028;-67
2021/03/02 10:38:50;;;;;;;35.08;21.27;;;230.80;2048.00;;;;;;5096851;28;20025;-67
2021/03/02 10:41:16;;;;;;;30.02;19.48;;;231.00;1996.80;;;;;;5096706;28;20032;-68
2021/03/02 10:43:42;;;;;;;28.80;17.98;;;231.20;1971.20;;;;;;5096888;28;20020;-69
2021/03/02 10:46:07;;;;;;;31.95;18.52;;;231.10;1945.60;;;;;;5096621;28;20024;-68
2021/03/02 10:48:33;;;;;;;22.73;13.13;;;231.20;1996.80;;;;;;5096308;28;20081;-69
2021/03/02 10:50:59;;;;;;;29.35;18.52;;;256.20;1868.80;;;;;;5096786;28;20043;-68
2021/03/02 10:53:25;;;;;;;33.90;20.25;;;256.30;1894.40;;;;;;5096852;28;20334;-68
2021/03/02 10:55:52;;;;;;;31.70;20.35;;;256.20;1920.00;;;;;;5096351;28;20047;-69
2021/03/02 10:58:18;;;;;;;61.08;22.67;;;256.30;1920.00;;;;;;5087159;28;20023;-68
2021/03/02 11:00:44;;;;;;;33.50;20.05;;;256.30;1971.20;;;;;;5082605;28;20063;-67
2021/03/02 11:03:10;;;;;;;24.95;16.52;;;256.70;1868.80;;;;;;5083562;28;20098;-68
2021/03/02 11:05:36;;;;;;;19.77;12.50;;;256.80;1792.00;;;;;;5086694;28;20028;-66
2021/03/02 11:08:02;;;;;;;20.92;13.43;;;281.70;1766.40;;;;;;5085105;28;20020;-66
2021/03/02 11:10:28;;;;;;;17.88;11.88;;;281.80;1740.80;;;;;;5085640;28;20035;-66
2021/03/02 11:12:54;;;;;;;20.08;12.30;;;281.80;1715.20;;;;;;5084369;28;20020;-67
2021/03/02 11:15:19;;;;;;;17.15;10.55;;;282.10;1689.60;;;;;;5085560;28;20034;-68
2021/03/02 11:17:45;;;;;;;19.05;11.90;;;282.00;1664.00;;;;;;5076057;28;20021;-69
2021/03/02 11:20:11;;;;;;;16.63;8.63;;;282.00;1689.60;;;;;;5075778;28;20034;-67
2021/03/02 11:22:37;;;;;;;21.13;10.10;;;282.10;1612.80;;;;;;5075825;28;20020;-68
2021/03/02 11:25:03;;;;;;;15.02;8.88;;;282.30;1664.00;;;;;;5096047;28;20074;-68
2021/03/02 11:27:29;;;;;;;15.98;10.00;;;282.40;1587.20;;;;;;5100039;28;20080;-68
2021/03/02 11:29:55;;;;;;;16.45;8.93;;;307.40;1612.80;;;;;;5099478;28;20043;-69
2021/03/02 11:32:21;;;;;;;13.45;8.52;;;307.20;1587.20;;;;;;5099555;28;20407;-69
2021/03/02 11:34:47;;;;;;;15.40;8.63;;;307.60;1536.00;;;;;;5098123;28;20050;-69
2021/03/02 11:37:13;;;;;;;15.32;8.02;;;307.60;1561.60;;;;;;5096969;28;20026;-67
2021/03/02 11:39:39;;;;;;;13.90;8.75;;;307.50;1536.00;;;;;;5099030;28;20024;-68
2021/03/02 11:42:06;;;;;;;12.68;7.30;;;307.70;1510.40;;;;;;5086978;28;20406;-69
2021/03/02 11:44:32;;;;;;;14.20;7.75;;;307.70;1484.80;;;;;;5089005;28;20035;-70
2021/03/02 11:46:58;;;;;;;13.65;8.73;;;307.90;1484.80;;;;;;5088739;28;20016;-67
2021/03/02 11:49:27;;;;;;;15.98;9.30;;;307.90;1484.80;;;;;;5086785;28;20055;-70
2021/03/02 11:51:53;;;;;;;15.80;9.40;;;332.90;1484.80;;;;;;5088634;28;20024;-69
2021/03/02 11:54:18;;;;;;;13.85;8.88;;;333.00;1484.80;;;;;;5098940;28;20039;-67
2021/03/02 11:56:44;;;;;;;13.57;9.15;;;333.20;1459.20;;;;;;5098279;28;20020;-67
2021/03/02 11:59:10;;;;;;;13.90;8.57;;;333.30;1459.20;;;;;;5099126;28;20337;-66
2021/03/02 12:01:36;;;;;;;11.93;7.35;;;333.60;1408.00;;;;;;5099082;28;20051;-68
2021/03/02 12:04:02;;;;;;;16.20;9.20;;;333.70;1382.40;;;;;;5099405;28;20103;-67
2021/03/02 12:06:27;;;;;;;16.73;8.63;;;358.80;1382.40;;;;;;5099447;28;20027;-66
2021/03/02 12:08:53;;;;;;;15.75;8.65;;;384.60;1305.60;;;;;;5099021;28;20035;-69
2021/03/02 12:11:19;;;;;;;11.00;7.38;;;486.40;1152.00;;;;;;5098555;28;20039;-67
2021/03/02 12:13:45;;;;;;;9.82;6.95;;;589.00;998.40;;;;;;5099423;28;20050;-68
2021/03/02 12:16:10;;;;;;;9.93;6.90;;;615.00;921.60;;;;;;5099332;28;20047;-68
2021/03/02 12:18:36;;;;;;;9.07;6.38;;;640.70;844.80;;;;;;5099135;28;20103;-69